Time;durP1;ratioP1;P1;durP2;ratioP2;P2;SDS_P1;SDS_P2;PMS_P1;PMS_P2;Temp;Humidity;BMP_temperature;BMP_pressure;BME280_temperature;BME280_humidity;BME280_pressure;Samples;Min_cycle;Max_cycle;Signal;HPM_P1;HPM_P2
2023/05/26 00:02:20;;;;;;;22.50;5.87;;;;;;;8.33;100.00;101508.94;5029982;28;20211;-75
2023/05/26 00:04:47;;;;;;;18.77;6.00;;;;;;;8.31;100.00;101509.81;5031409;28;20259;-75
2023/05/26 00:07:15;;;;;;;17.77;6.30;;;;;;;8.27;100.00;101513.25;5031437;28;20215;-76
2023/05/26 00:09:41;;;;;;;27.33;5.73;;;;;;;8.30;100.00;101521.03;5031985;28;20234;-75
2023/05/26 00:12:08;;;;;;;23.00;6.13;;;;;;;8.28;100.00;101513.22;5031924;28;20295;-75
2023/05/26 00:14:36;;;;;;;16.77;6.13;;;;;;;8.29;100.00;101522.78;5044021;28;20283;-75
2023/05/26 00:17:03;;;;;;;22.40;5.40;;;;;;;8.24;100.00;101532.25;5031879;28;20236;-75
2023/05/26 00:19:31;;;;;;;21.17;5.93;;;;;;;8.22;100.00;101533.13;5031898;28;20320;-75
2023/05/26 00:21:58;;;;;;;21.67;5.43;;;;;;;8.30;100.00;101531.44;5031955;28;20210;-75
2023/05/26 00:24:24;;;;;;;24.67;7.17;;;;;;;8.20;100.00;101533.09;5032528;28;20256;-74
2023/05/26 00:26:51;;;;;;;22.93;5.30;;;;;;;8.19;100.00;101533.13;5031716;28;20581;-75
2023/05/26 00:29:17;;;;;;;19.37;5.40;;;;;;;8.15;100.00;101529.59;5031976;28;20234;-75
2023/05/26 00:31:45;;;;;;;21.47;5.73;;;;;;;8.15;100.00;101540.88;5031944;28;20203;-75
2023/05/26 00:34:11;;;;;;;19.87;5.47;;;;;;;8.11;100.00;101538.25;5031785;28;20234;-75
2023/05/26 00:36:38;;;;;;;23.07;4.87;;;;;;;8.06;100.00;101537.31;5031527;28;20675;-75
2023/05/26 00:39:04;;;;;;;23.03;5.87;;;;;;;8.05;100.00;101539.06;5031543;28;20222;-75
2023/05/26 00:41:31;;;;;;;19.67;5.63;;;;;;;8.04;100.00;101544.22;5031698;28;20668;-75
2023/05/26 00:43:57;;;;;;;25.27;5.70;;;;;;;8.01;100.00;101546.78;5042977;28;20198;-75
2023/05/26 00:46:24;;;;;;;25.07;6.33;;;;;;;7.98;100.00;101549.38;5032177;28;20205;-75
2023/05/26 00:48:52;;;;;;;17.30;5.03;;;;;;;7.92;100.00;101538.06;5031856;28;20225;-75
2023/05/26 00:51:18;;;;;;;17.20;5.10;;;;;;;7.94;100.00;101541.53;5031662;28;20294;-75
2023/05/26 00:53:45;;;;;;;22.10;6.10;;;;;;;7.92;100.00;101542.38;5031427;28;20272;-75
2023/05/26 00:56:14;;;;;;;17.23;5.97;;;;;;;7.90;100.00;101544.09;5031616;28;20216;-75
2023/05/26 00:58:40;;;;;;;19.37;6.50;;;;;;;7.87;100.00;101546.66;5031614;28;20262;-75
2023/05/26 01:01:07;;;;;;;19.10;4.80;;;;;;;7.86;100.00;101547.53;5031666;28;20266;-75
2023/05/26 01:03:34;;;;;;;17.30;6.03;;;;;;;7.82;100.00;101541.41;5031834;28;20215;-75
2023/05/26 01:06:02;;;;;;;19.13;6.53;;;;;;;7.83;100.00;101542.28;5031274;28;20208;-75
2023/05/26 01:08:29;;;;;;;18.77;5.37;;;;;;;7.79;100.00;101536.22;5031314;28;20228;-75
2023/05/26 01:11:00;;;;;;;30.07;6.30;;;;;;;7.80;100.00;101537.94;5031375;28;20209;-75
2023/05/26 01:13:34;;;;;;;20.27;6.23;;;;;;;7.77;100.00;101537.94;5038277;28;20669;-75
2023/05/26 01:16:09;;;;;;;20.13;4.87;;;;;;;7.76;100.00;101539.63;5035201;28;20239;-75
2023/05/26 01:18:42;;;;;;;23.83;5.57;;;;;;;7.73;100.00;101550.00;5031163;28;20227;-75
2023/05/26 01:21:12;;;;;;;24.50;5.67;;;;;;;7.69;100.00;101539.53;5031306;28;20559;-75
2023/05/26 01:24:00;;;;;;;14.37;4.67;;;;;;;7.67;100.00;101536.97;5031761;28;20227;-75
2023/05/26 01:26:37;;;;;;;24.43;5.10;;;;;;;7.69;100.00;101539.53;5031125;28;20614;-75
2023/05/26 01:29:11;;;;;;;19.77;5.73;;;;;;;7.65;100.00;101548.16;5031085;28;20233;-75
2023/05/26 01:31:39;;;;;;;17.87;6.53;;;;;;;7.62;100.00;101555.94;5031314;28;20265;-75
2023/05/26 01:34:05;;;;;;;22.50;6.17;;;;;;;7.60;100.00;101553.31;5031092;28;20603;-75
2023/05/26 01:36:32;;;;;;;21.10;6.30;;;;;;;7.56;100.00;101544.59;5031341;28;20209;-75
2023/05/26 01:38:59;;;;;;;17.87;4.93;;;;;;;7.58;100.00;101559.38;5034064;28;20639;-75
2023/05/26 01:41:29;;;;;;;19.13;5.80;;;;;;;7.54;100.00;101556.72;5034737;28;20222;-75
2023/05/26 01:44:00;;;;;;;21.37;6.47;;;;;;;7.48;100.00;101554.03;5042085;28;20610;-75
2023/05/26 01:46:33;;;;;;;23.10;5.80;;;;;;;7.40;100.00;101563.47;5034553;28;20211;-75
2023/05/26 01:49:03;;;;;;;21.57;5.27;;;;;;;7.40;100.00;101560.03;5034863;28;20506;-75
2023/05/26 01:51:35;;;;;;;29.27;6.13;;;;;;;7.39;100.00;101558.25;5034555;28;20669;-75
2023/05/26 01:54:07;;;;;;;21.17;6.03;;;;;;;7.33;100.00;101556.44;5034473;28;20252;-75
2023/05/26 01:56:35;;;;;;;19.83;5.13;;;;;;;7.30;100.00;101553.84;5034589;28;20263;-75
2023/05/26 01:59:02;;;;;;;23.93;6.07;;;;;;;7.27;100.00;101540.78;5034328;28;20711;-75
2023/05/26 02:01:33;;;;;;;22.27;5.30;;;;;;;7.27;100.00;101538.19;5034705;28;20260;-75
2023/05/26 02:04:00;;;;;;;25.43;5.90;;;;;;;7.28;100.00;101543.41;5034410;28;20207;-75
2023/05/26 02:06:26;;;;;;;24.23;6.03;;;;;;;7.23;100.00;101539.88;5034179;28;20261;-75
2023/05/26 02:08:53;;;;;;;25.37;6.67;;;;;;;7.20;100.00;101539.88;5034209;28;20283;-75
2023/05/26 02:11:19;;;;;;;16.50;6.07;;;;;;;7.18;100.00;101543.31;5034364;28;20207;-75
2023/05/26 02:13:46;;;;;;;25.33;6.40;;;;;;;7.15;100.00;101537.22;5043576;28;20255;-75
2023/05/26 02:16:13;;;;;;;25.17;5.80;;;;;;;7.19;100.00;101543.28;5036380;28;20236;-75
2023/05/26 02:18:41;;;;;;;23.00;5.27;;;;;;;7.16;100.00;101558.84;5033959;28;20226;-75
2023/05/26 02:21:07;;;;;;;14.27;5.13;;;;;;;7.12;100.00;101563.13;5033833;28;20273;-75
2023/05/26 02:23:34;;;;;;;22.33;7.13;;;;;;;7.05;100.00;101550.03;5034160;28;20217;-75
2023/05/26 02:26:01;;;;;;;19.00;5.90;;;;;;;7.06;100.00;101554.41;5033858;28;20744;-75
2023/05/26 02:28:28;;;;;;;27.30;5.60;;;;;;;7.05;100.00;101550.91;5034053;28;20237;-75
2023/05/26 02:30:54;;;;;;;22.87;6.33;;;;;;;6.99;100.00;101543.03;5034063;28;20207;-75
2023/05/26 02:33:21;;;;;;;24.03;5.87;;;;;;;6.95;100.00;101546.44;5033841;28;20623;-74
2023/05/26 02:35:48;;;;;;;27.10;6.33;;;;;;;6.92;100.00;101544.69;5033582;28;20230;-75
2023/05/26 02:38:15;;;;;;;20.47;5.63;;;;;;;6.92;100.00;101552.47;5033758;28;20230;-75
2023/05/26 02:40:41;;;;;;;26.20;5.87;;;;;;;6.93;100.00;101555.94;5033817;28;20261;-75
2023/05/26 02:43:08;;;;;;;21.10;5.73;;;;;;;6.86;100.00;101557.59;5033810;28;20260;-75
2023/05/26 02:45:34;;;;;;;22.10;5.73;;;;;;;6.82;100.00;101560.09;5033125;28;20664;-75
2023/05/26 02:48:00;;;;;;;17.63;6.27;;;;;;;6.80;100.00;101559.19;5033322;28;20222;-75
2023/05/26 02:50:27;;;;;;;23.10;5.40;;;;;;;6.84;100.00;101556.69;5033335;28;20207;-75
2023/05/26 02:52:54;;;;;;;26.70;5.53;;;;;;;6.91;100.00;101568.88;5033615;28;20206;-75
2023/05/26 02:55:21;;;;;;;23.53;5.33;;;;;;;6.87;100.00;101571.41;5033227;28;20635;-75
2023/05/26 02:57:47;;;;;;;30.73;5.80;;;;;;;6.80;100.00;101564.38;5032890;28;20211;-74
2023/05/26 03:00:15;;;;;;;31.23;5.70;;;;;;;6.82;100.00;101567.88;5033793;28;20280;-75
2023/05/26 03:02:41;;;;;;;27.60;6.13;;;;;;;6.80;100.00;101560.09;5033967;28;20204;-75
2023/05/26 03:05:09;;;;;;;28.20;5.53;;;;;;;6.76;100.00;101564.34;5033343;28;20245;-75
2023/05/26 03:07:35;;;;;;;24.97;5.53;;;;;;;6.75;100.00;101557.41;5033325;28;20267;-75
2023/05/26 03:10:03;;;;;;;22.27;7.97;;;;;;;6.81;100.00;101563.56;5033409;28;20208;-75
2023/05/26 03:12:29;;;;;;;31.97;6.33;;;;;;;6.72;100.00;101562.56;5032981;28;20548;-75
2023/05/26 03:14:57;;;;;;;26.57;6.83;;;;;;;6.74;100.00;101562.59;5045000;28;20251;-75
2023/05/26 03:17:24;;;;;;;26.53;6.43;;;;;;;6.72;100.00;101569.50;5032799;28;20203;-75
2023/05/26 03:19:51;;;;;;;19.13;5.47;;;;;;;6.74;100.00;101572.97;5032873;28;20276;-75
2023/05/26 03:22:17;;;;;;;22.53;5.97;;;;;;;6.73;100.00;101573.81;5033128;28;20204;-74
2023/05/26 03:24:43;;;;;;;26.80;6.27;;;;;;;6.77;100.00;101573.00;5032742;28;20672;-75
2023/05/26 03:27:11;;;;;;;19.63;5.77;;;;;;;6.71;100.00;101573.78;5032601;28;20203;-75
2023/05/26 03:29:38;;;;;;;26.93;6.27;;;;;;;6.71;100.00;101578.09;5032784;28;20230;-75
2023/05/26 03:32:05;;;;;;;30.03;7.23;;;;;;;6.76;100.00;101579.94;5032564;28;20674;-75
2023/05/26 03:34:33;;;;;;;30.87;6.83;;;;;;;6.76;100.00;101587.72;5032601;28;20791;-75
2023/05/26 03:36:59;;;;;;;20.57;6.27;;;;;;;6.74;100.00;101591.16;5032820;28;20272;-74
2023/05/26 03:39:26;;;;;;;27.87;6.37;;;;;;;6.71;100.00;101591.06;5032622;28;20234;-75
2023/05/26 03:41:52;;;;;;;19.60;5.83;;;;;;;6.66;100.00;101591.03;5033017;28;20257;-75
2023/05/26 03:44:21;;;;;;;39.47;7.47;;;;;;;6.73;100.00;101586.78;5044699;28;20260;-74
2023/05/26 03:46:48;;;;;;;26.07;6.63;;;;;;;6.78;100.00;101592.03;5050779;28;20210;-75
2023/05/26 03:49:14;;;;;;;24.50;6.50;;;;;;;6.75;100.00;101588.53;5052421;28;20222;-75
2023/05/26 03:51:41;;;;;;;33.80;7.00;;;;;;;6.81;100.00;101598.16;5052294;28;20207;-75
2023/05/26 03:54:07;;;;;;;24.93;5.73;;;;;;;6.74;100.00;101599.78;5052318;28;20210;-75
2023/05/26 03:56:34;;;;;;;29.47;6.07;;;;;;;6.75;100.00;101606.72;5052464;28;20551;-75
2023/05/26 03:59:01;;;;;;;21.17;6.73;;;;;;;6.80;100.00;101601.63;5051992;28;20285;-75
2023/05/26 04:01:29;;;;;;;20.40;6.30;;;;;;;6.86;100.00;101611.22;5051952;28;20262;-74
2023/05/26 04:03:55;;;;;;;21.07;5.07;;;;;;;6.89;100.00;101613.84;5052065;28;20757;-75
2023/05/26 04:06:22;;;;;;;27.03;7.83;;;;;;;6.86;100.00;101622.47;5051986;28;20203;-75
2023/05/26 04:08:49;;;;;;;32.50;7.00;;;;;;;6.86;100.00;101626.78;5051889;28;20231;-74
2023/05/26 04:11:15;;;;;;;25.90;6.53;;;;;;;6.88;100.00;101628.56;5051895;28;20214;-75
2023/05/26 04:13:42;;;;;;;26.87;6.73;;;;;;;6.93;100.00;101639.00;5041071;28;20484;-75
2023/05/26 04:16:08;;;;;;;30.57;6.30;;;;;;;7.09;100.00;101633.16;5031451;28;20687;-75
2023/05/26 04:18:37;;;;;;;38.63;9.70;;;;;;;7.15;100.00;101647.97;5031869;28;20224;-74
2023/05/26 04:21:03;;;;;;;24.40;6.77;;;;;;;7.31;100.00;101656.84;5037499;22;20575;-77
2023/05/26 04:23:30;;;;;;;20.03;5.47;;;;;;;7.36;100.00;101668.19;5012567;28;20213;-77
2023/05/26 04:25:56;;;;;;;26.77;6.43;;;;;;;7.41;100.00;101684.69;5012759;28;20206;-77
2023/05/26 04:28:24;;;;;;;14.93;6.13;;;;;;;7.55;100.00;101684.88;5012149;28;20234;-79
2023/05/26 04:30:50;;;;;;;30.60;7.20;;;;;;;7.61;100.00;101700.59;5014672;28;20231;-78
2023/05/26 04:33:17;;;;;;;26.77;6.30;;;;;;;7.62;100.00;101699.72;5013838;28;20215;-78
2023/05/26 04:35:46;;;;;;;26.37;6.10;;;;;;;7.73;100.00;101694.66;5012852;28;20644;-77
2023/05/26 04:38:13;;;;;;;17.93;7.10;;;;;;;7.65;100.00;101701.47;5012688;28;20580;-78
2023/05/26 04:40:39;;;;;;;22.33;6.17;;;;;;;7.74;100.00;101704.22;5013143;28;20212;-78
2023/05/26 04:43:06;;;;;;;22.70;6.50;;;;;;;7.72;100.00;101711.97;5012883;28;20301;-77
2023/05/26 04:45:33;;;;;;;29.73;6.20;;;;;;;7.86;100.00;101717.38;5021182;28;20198;-78
2023/05/26 04:48:00;;;;;;;18.47;5.43;;;;;;;7.91;100.00;101736.50;5032363;28;20228;-78
2023/05/26 04:50:27;;;;;;;29.40;6.50;;;;;;;7.85;100.00;101744.22;5032698;28;20202;-77
2023/05/26 04:52:54;;;;;;;20.87;6.77;;;;;;;7.70;100.00;101742.28;5032587;28;20263;-77
2023/05/26 04:55:21;;;;;;;25.73;6.97;;;;;;;7.75;100.00;101730.22;5031936;28;20278;-77
2023/05/26 04:57:48;;;;;;;22.90;6.00;;;;;;;7.88;100.00;101730.38;5031901;28;20204;-77
2023/05/26 05:00:15;;;;;;;19.63;5.93;;;;;;;8.09;100.00;101728.06;5032635;28;20211;-78
2023/05/26 05:02:41;;;;;;;41.43;7.23;;;;;;;8.20;100.00;101746.38;5032710;28;20206;-77
2023/05/26 05:05:08;;;;;;;23.60;6.33;;;;;;;8.16;100.00;101774.06;5032819;28;20306;-76
2023/05/26 05:07:35;;;;;;;24.90;5.90;;;;;;;8.09;100.00;101772.28;5032059;28;20210;-77
2023/05/26 05:10:03;;;;;;;22.20;6.23;;;;;;;8.08;100.00;101772.25;5032436;28;20303;-76
2023/05/26 05:12:29;;;;;;;26.80;7.07;;;;;;;8.09;100.00;101771.41;5033189;28;20261;-77
2023/05/26 05:14:56;;;;;;;22.20;6.60;;;;;;;8.15;100.00;101776.69;5029215;28;20269;-77
2023/05/26 05:17:22;;;;;;;21.97;5.67;;;;;;;8.25;100.00;101793.28;5035924;28;20202;-77
2023/05/26 05:19:49;;;;;;;25.83;7.50;;;;;;;8.30;100.00;101815.00;5036395;28;20281;-77
2023/05/26 05:22:15;;;;;;;17.50;5.50;;;;;;;8.38;100.00;101833.31;5036254;28;20685;-77
2023/05/26 05:24:41;;;;;;;24.70;7.20;;;;;;;8.32;100.00;101841.91;5036649;28;20207;-77
2023/05/26 05:27:09;;;;;;;25.37;6.47;;;;;;;8.38;100.00;101846.31;5036034;28;20620;-77
2023/05/26 05:29:36;;;;;;;29.23;6.03;;;;;;;8.46;100.00;101836.91;5036050;28;20268;-77
2023/05/26 05:32:02;;;;;;;24.53;6.27;;;;;;;8.55;100.00;101850.91;5036460;28;20266;-77
2023/05/26 05:34:28;;;;;;;22.67;6.70;;;;;;;8.66;100.00;101863.19;5035752;28;20217;-76
2023/05/26 05:36:55;;;;;;;18.07;5.93;;;;;;;8.53;100.00;101886.47;5036572;28;20229;-78
2023/05/26 05:39:21;;;;;;;24.27;6.93;;;;;;;8.62;100.00;101882.22;5036659;28;20226;-78
2023/05/26 05:41:48;;;;;;;26.73;6.63;;;;;;;8.52;100.00;101876.91;5037173;28;20207;-79
2023/05/26 05:44:15;;;;;;;16.07;5.70;;;;;;;8.59;100.00;101874.38;5033817;28;20244;-79
2023/05/26 05:46:42;;;;;;;20.17;5.83;;;;;;;8.77;100.00;101881.53;5036220;28;20255;-78
2023/05/26 05:49:08;;;;;;;20.73;5.70;;;;;;;8.92;100.00;101931.22;5039159;28;20236;-79
2023/05/26 05:51:35;;;;;;;18.13;5.70;;;;;;;9.03;98.80;101967.78;5038173;28;20507;-79
2023/05/26 05:54:01;;;;;;;16.33;5.93;;;;;;;9.20;97.97;101996.66;5038137;28;20203;-80
2023/05/26 05:56:28;;;;;;;17.60;5.87;;;;;;;9.34;95.75;102022.00;5037918;28;20229;-80
2023/05/26 05:58:54;;;;;;;22.33;5.70;;;;;;;9.34;94.02;102066.31;5038596;28;20277;-79
2023/05/26 06:01:22;;;;;;;14.97;5.13;;;;;;;9.47;92.73;102088.16;5038662;28;20211;-77
2023/05/26 06:03:48;;;;;;;15.57;5.60;;;;;;;9.48;91.94;102113.38;5037912;28;20240;-79
2023/05/26 06:06:16;;;;;;;18.50;5.60;;;;;;;9.53;90.75;102137.81;5038101;28;20209;-77
2023/05/26 06:08:42;;;;;;;24.63;5.77;;;;;;;9.62;89.97;102172.66;5037552;28;20225;-79
2023/05/26 06:11:09;;;;;;;18.60;5.50;;;;;;;9.56;89.47;102189.09;5038391;28;20228;-80
2023/05/26 06:13:35;;;;;;;26.13;5.70;;;;;;;9.66;89.59;102192.69;5041016;28;20238;-79
2023/05/26 06:16:02;;;;;;;13.97;5.17;;;;;;;9.71;88.77;102201.44;5032956;28;20225;-80
2023/05/26 06:18:30;;;;;;;14.43;5.87;;;;;;;9.83;88.64;102212.06;5041570;28;20231;-80
2023/05/26 06:20:57;;;;;;;16.53;5.00;;;;;;;9.99;87.32;102239.22;5039795;28;20259;-79
2023/05/26 06:23:23;;;;;;;21.37;5.73;;;;;;;10.08;86.93;102254.97;5038431;28;20208;-79
2023/05/26 06:25:50;;;;;;;21.63;6.03;;;;;;;9.93;85.75;102283.47;5040073;28;20231;-80
2023/05/26 06:28:16;;;;;;;19.63;6.17;;;;;;;9.98;86.28;102273.09;5040008;28;20267;-78
2023/05/26 06:30:43;;;;;;;23.57;5.20;;;;;;;10.04;86.01;102281.88;5041655;28;20224;-80
2023/05/26 06:33:09;;;;;;;17.60;4.90;;;;;;;10.13;86.33;102283.75;5041782;28;20238;-80
2023/05/26 06:35:37;;;;;;;16.53;5.33;;;;;;;10.22;86.11;102273.38;5041800;28;20271;-81
2023/05/26 06:38:04;;;;;;;16.70;4.33;;;;;;;10.31;85.08;102289.22;5039653;28;20224;-81
2023/05/26 06:40:30;;;;;;;18.63;4.97;;;;;;;10.34;84.06;102309.25;5043387;28;20255;-81
2023/05/26 06:42:56;;;;;;;16.33;4.97;;;;;;;10.32;83.77;102331.84;5027593;28;20674;-80
2023/05/26 06:45:23;;;;;;;21.90;6.20;;;;;;;10.45;83.59;102344.19;5032569;28;20200;-78
2023/05/26 06:47:49;;;;;;;15.27;5.13;;;;;;;10.42;83.65;102330.22;5043666;28;20209;-81
2023/05/26 06:50:16;;;;;;;19.00;5.53;;;;;;;10.38;83.79;102344.09;5041703;28;20210;-80
2023/05/26 06:52:43;;;;;;;15.90;5.57;;;;;;;10.41;84.02;102338.94;5043651;28;20211;-80
2023/05/26 06:55:10;;;;;;;18.63;5.57;;;;;;;10.40;84.08;102332.81;5043665;28;20211;-79
2023/05/26 06:57:36;;;;;;;19.93;5.83;;;;;;;10.26;82.27;102355.22;5040614;28;20206;-80
2023/05/26 07:00:03;;;;;;;17.73;5.63;;;;;;;9.97;83.38;102366.16;5038825;28;20209;-79
2023/05/26 07:02:30;;;;;;;25.03;6.23;;;;;;;10.10;84.02;102341.09;5038373;28;20251;-80
2023/05/26 07:04:56;;;;;;;18.47;5.80;;;;;;;10.26;83.92;102329.13;5039002;28;20567;-79
2023/05/26 07:07:22;;;;;;;18.73;5.37;;;;;;;10.32;83.30;102343.16;5039485;28;20487;-80
2023/05/26 07:09:50;;;;;;;15.87;5.43;;;;;;;10.34;82.88;102343.16;5040582;28;20634;-78
2023/05/26 07:12:17;;;;;;;17.90;5.93;;;;;;;10.45;83.37;102338.09;5039927;28;20236;-80
2023/05/26 07:14:46;;;;;;;19.27;4.73;;;;;;;10.59;82.97;102338.28;5032915;28;20209;-79
2023/05/26 07:17:12;;;;;;;16.80;6.07;;;;;;;10.68;82.67;102343.56;5039027;28;20292;-79
2023/05/26 07:19:39;;;;;;;18.97;5.10;;;;;;;10.59;82.57;102340.88;5038117;28;20225;-80
2023/05/26 07:22:05;;;;;;;15.27;5.37;;;;;;;10.69;83.60;102327.94;5038182;28;20222;-79
2023/05/26 07:24:32;;;;;;;14.83;5.30;;;;;;;10.76;82.61;102331.47;5038177;28;20206;-79
2023/05/26 07:27:00;;;;;;;16.57;5.13;;;;;;;10.83;82.86;102335.91;5041598;28;20651;-84
2023/05/26 07:29:26;;;;;;;16.83;5.97;;;;;;;10.93;82.44;102340.38;5040253;28;20232;-83
2023/05/26 07:31:53;;;;;;;18.10;6.83;;;;;;;11.06;82.49;102341.38;5030402;28;20233;-79
2023/05/26 07:34:20;;;;;;;16.03;5.13;;;;;;;11.11;81.29;102359.72;5023579;28;20214;-82
2023/05/26 07:36:47;;;;;;;23.83;5.90;;;;;;;10.93;80.00;102381.31;5022241;28;20224;-80
2023/05/26 07:39:13;;;;;;;18.37;5.47;;;;;;;10.92;80.94;102390.91;5021856;28;20228;-81
2023/05/26 07:41:39;;;;;;;18.10;5.50;;;;;;;10.47;81.03;102396.44;5021103;28;20206;-82
2023/05/26 07:44:07;;;;;;;26.10;6.03;;;;;;;10.52;83.17;102356.47;5022539;28;20280;-81
2023/05/26 07:46:34;;;;;;;21.03;6.37;;;;;;;10.78;83.40;102321.91;5039323;28;20235;-82
2023/05/26 07:49:00;;;;;;;21.13;5.47;;;;;;;10.80;81.05;102335.00;5041645;28;20230;-81
2023/05/26 07:51:26;;;;;;;18.80;5.17;;;;;;;10.99;81.51;102338.69;5041799;28;20211;-82
2023/05/26 07:53:53;;;;;;;18.53;6.67;;;;;;;11.06;80.16;102364.91;5042030;28;20231;-81
2023/05/26 07:56:19;;;;;;;14.93;5.50;;;;;;;11.20;79.42;102374.59;5042804;28;20229;-82
2023/05/26 07:58:46;;;;;;;18.67;5.23;;;;;;;11.05;78.64;102404.94;5042110;28;20706;-80
2023/05/26 08:01:14;;;;;;;16.43;5.70;;;;;;;11.09;80.04;102372.75;5041266;28;20209;-82
2023/05/26 08:03:40;;;;;;;15.20;5.93;;;;;;;11.06;78.97;102377.06;5042166;28;20209;-82
2023/05/26 08:06:07;;;;;;;20.20;5.73;;;;;;;10.74;79.39;102398.50;5042435;28;20291;-79
2023/05/26 08:08:34;;;;;;;16.37;6.00;;;;;;;10.91;79.55;102386.50;5038321;28;20235;-82
2023/05/26 08:11:00;;;;;;;17.47;6.03;;;;;;;11.11;79.60;102381.50;5041538;28;20212;-83
2023/05/26 08:13:26;;;;;;;18.20;4.97;;;;;;;11.09;78.63;102391.06;5042004;28;20263;-82
2023/05/26 08:15:53;;;;;;;19.27;5.83;;;;;;;11.19;78.80;102399.88;5034966;28;20252;-81
2023/05/26 08:18:21;;;;;;;15.83;6.53;;;;;;;11.27;78.06;102410.41;5042189;28;20231;-82
2023/05/26 08:20:52;;;;;;;16.67;6.10;;;;;;;11.31;78.03;102415.66;5036560;28;20218;-81
2023/05/26 08:23:18;;;;;;;19.30;5.90;;;;;;;11.33;77.79;102423.53;5041879;28;20209;-82
2023/05/26 08:25:45;;;;;;;16.77;5.50;;;;;;;11.32;77.64;102429.66;5039742;28;20236;-82
2023/05/26 08:28:11;;;;;;;19.70;4.90;;;;;;;11.45;78.64;102421.03;5023494;28;20613;-82
2023/05/26 08:30:37;;;;;;;18.60;5.23;;;;;;;11.44;75.95;102427.16;5010227;28;20211;-82
2023/05/26 08:33:04;;;;;;;18.63;5.17;;;;;;;11.61;76.22;102447.34;5008992;28;20215;-81
2023/05/26 08:35:32;;;;;;;20.60;5.33;;;;;;;11.72;76.60;102449.19;5009231;28;20614;-82
2023/05/26 08:37:58;;;;;;;15.90;5.20;;;;;;;11.82;76.81;102444.91;4996954;28;20233;-82
2023/05/26 08:40:24;;;;;;;11.40;5.13;;;;;;;11.97;75.93;102448.53;4996762;28;20610;-82
2023/05/26 08:42:56;;;;;;;13.47;4.40;;;;;;;11.93;73.97;102465.94;4998111;28;20738;-82
2023/05/26 08:45:23;;;;;;;17.30;5.13;;;;;;;11.91;73.93;102500.00;5020012;28;20205;-82
2023/05/26 08:47:50;;;;;;;19.57;5.33;;;;;;;12.03;74.66;102487.84;5044493;28;20267;-82
2023/05/26 08:50:17;;;;;;;16.43;4.80;;;;;;;12.06;74.54;102495.75;5046261;28;20212;-82
2023/05/26 08:52:47;;;;;;;17.87;5.07;;;;;;;12.11;75.87;102468.75;5045485;28;20246;-82
2023/05/26 08:55:14;;;;;;;12.73;4.30;;;;;;;12.17;74.58;102483.63;5046281;28;20206;-82
2023/05/26 08:57:42;;;;;;;17.67;4.53;;;;;;;12.21;75.05;102479.25;5045979;28;20319;-79
2023/05/26 09:00:12;;;;;;;12.33;5.03;;;;;;;12.18;74.42;102497.56;5046867;28;20235;-84
2023/05/26 09:02:39;;;;;;;17.00;4.70;;;;;;;12.02;72.92;102520.13;5047280;28;20216;-81
2023/05/26 09:05:06;;;;;;;13.03;5.03;;;;;;;12.10;73.63;102515.84;5048426;28;20208;-81
2023/05/26 09:07:32;;;;;;;22.27;5.13;;;;;;;12.19;73.30;102526.41;5046980;28;20200;-79
2023/05/26 09:10:20;;;;;;;13.93;6.33;;;;;;;12.46;77.77;102462.84;5046339;28;20208;-82
2023/05/26 09:12:47;;;;;;;12.23;4.77;;;;;;;12.56;73.66;102482.09;5047606;28;20205;-80
2023/05/26 09:15:19;;;;;;;13.40;5.10;;;;;;;12.54;72.92;102507.41;5040033;28;20208;-82
2023/05/26 09:17:46;;;;;;;18.53;4.97;;;;;;;12.69;72.85;102519.75;5038989;28;20319;-82
2023/05/26 09:20:14;;;;;;;13.73;4.37;;;;;;;12.65;70.33;102524.09;5046557;28;20212;-82
2023/05/26 09:22:40;;;;;;;13.63;4.57;;;;;;;12.75;71.66;102543.38;5046411;28;20212;-81
2023/05/26 09:25:08;;;;;;;12.83;4.37;;;;;;;12.73;69.81;102558.19;5048125;28;20628;-81
2023/05/26 09:27:35;;;;;;;14.73;5.50;;;;;;;12.65;69.50;102586.97;5046966;28;20217;-79
2023/05/26 09:30:02;;;;;;;14.27;5.33;;;;;;;12.58;70.54;102602.63;5047974;28;20299;-84
2023/05/26 09:32:29;;;;;;;12.33;5.10;;;;;;;12.54;71.48;102595.63;5050175;28;20219;-84
2023/05/26 09:34:57;;;;;;;12.93;4.77;;;;;;;12.72;71.75;102572.16;5049065;28;20243;-82
2023/05/26 09:37:28;;;;;;;13.50;5.00;;;;;;;12.79;70.63;102588.81;5048370;28;20259;-81
2023/05/26 09:39:54;;;;;;;14.30;5.17;;;;;;;12.83;69.12;102614.19;5044435;28;20265;-80
2023/05/26 09:42:22;;;;;;;14.07;4.70;;;;;;;12.70;68.46;102640.31;5043856;28;20212;-82
2023/05/26 09:44:51;;;;;;;17.10;5.43;;;;;;;12.79;67.60;102638.63;5040090;28;20239;-80
2023/05/26 09:47:20;;;;;;;16.13;5.10;;;;;;;13.00;68.50;102643.09;5047073;28;20258;-81
2023/05/26 09:49:47;;;;;;;15.57;4.80;;;;;;;13.05;67.32;102660.63;5047729;28;20315;-81
2023/05/26 09:52:14;;;;;;;14.83;4.93;;;;;;;13.17;67.30;102677.31;5047547;28;20236;-81
2023/05/26 09:54:41;;;;;;;14.00;4.50;;;;;;;13.22;66.68;102673.88;5048310;28;20278;-82
2023/05/26 09:57:10;;;;;;;16.27;4.57;;;;;;;13.41;66.80;102677.47;5048478;28;20239;-82
2023/05/26 09:59:40;;;;;;;13.03;4.73;;;;;;;13.48;66.38;102689.78;5047502;28;20257;-80
2023/05/26 10:02:18;;;;;;;17.97;4.93;;;;;;;13.49;65.35;102717.75;5047776;28;20223;-82
2023/05/26 10:04:46;;;;;;;19.67;5.13;;;;;;;13.50;64.75;102721.28;5048462;28;20208;-82
2023/05/26 10:07:13;;;;;;;16.30;5.37;;;;;;;13.34;64.69;102735.16;5046596;28;20232;-81
2023/05/26 10:09:41;;;;;;;14.27;4.93;;;;;;;13.62;65.25;102721.34;5047401;28;20229;-82
2023/05/26 10:12:11;;;;;;;18.33;4.83;;;;;;;13.80;65.08;102715.28;5047822;28;20217;-80
2023/05/26 10:14:39;;;;;;;16.70;5.43;;;;;;;13.83;65.27;102723.16;5039546;28;20236;-83
2023/05/26 10:17:06;;;;;;;15.57;5.03;;;;;;;13.81;64.74;102724.91;5046923;28;20233;-81
2023/05/26 10:19:33;;;;;;;15.87;5.47;;;;;;;13.63;63.75;102740.56;5046726;28;20344;-80
2023/05/26 10:22:05;;;;;;;14.27;4.97;;;;;;;13.76;65.72;102746.78;5051623;22;20240;-77
2023/05/26 10:24:36;;;;;;;12.37;4.50;;;;;;;13.90;65.36;102718.84;5033766;28;20213;-77
2023/05/26 10:27:07;;;;;;;10.17;4.30;;;;;;;14.04;64.25;102701.38;5035136;28;20228;-78
2023/05/26 10:29:42;;;;;;;14.23;4.80;;;;;;;14.12;63.51;102719.78;5035995;28;20210;-78
2023/05/26 10:32:42;;;;;;;12.67;4.70;;;;;;;14.33;64.29;102697.94;5035884;28;20607;-78
2023/05/26 10:35:21;;;;;;;16.60;4.47;;;;;;;14.15;64.14;102729.41;5035339;28;20225;-78
2023/05/26 10:37:49;;;;;;;15.57;5.17;;;;;;;13.98;64.23;102696.09;5035754;28;20229;-77
2023/05/26 10:40:27;;;;;;;15.63;5.40;;;;;;;14.25;63.37;102704.91;5035474;28;20210;-77
2023/05/26 10:42:58;;;;;;;20.43;6.10;;;;;;;14.27;59.17;102787.22;5035783;28;20220;-77
2023/05/26 10:45:25;;;;;;;12.73;4.70;;;;;;;14.27;59.44;102851.19;5035289;28;20219;-78
2023/05/26 10:47:58;;;;;;;14.23;4.33;;;;;;;14.55;62.37;102825.00;5034706;28;20271;-78
2023/05/26 10:50:25;;;;;;;14.67;4.17;;;;;;;14.69;62.19;102811.94;5035741;28;20202;-77
2023/05/26 10:52:52;;;;;;;11.20;4.70;;;;;;;14.72;58.06;102827.69;5035291;28;20206;-78
2023/05/26 10:55:29;;;;;;;10.87;4.30;;;;;;;14.74;55.85;102901.31;5035352;28;20247;-78
2023/05/26 10:58:33;;;;;;;6.37;3.13;;;;;;;14.93;55.87;102946.97;5035304;28;20235;-78
2023/05/26 11:01:00;;;;;;;13.20;4.30;;;;;;;15.13;56.66;102968.09;5036972;28;20224;-78
2023/05/26 11:03:37;;;;;;;10.47;3.97;;;;;;;15.13;54.23;102989.13;5038017;28;20217;-79
2023/05/26 11:06:05;;;;;;;12.27;3.77;;;;;;;14.71;52.21;103038.91;5037795;28;20206;-79
2023/05/26 11:08:39;;;;;;;12.27;3.80;;;;;;;14.76;52.99;103054.72;5037463;28;20668;-78
2023/05/26 11:11:08;;;;;;;7.73;3.17;;;;;;;14.70;52.85;103066.94;5036314;28;20229;-78
2023/05/26 11:13:45;;;;;;;8.83;4.10;;;;;;;15.07;54.14;103069.78;5037026;28;20229;-78
2023/05/26 11:16:23;;;;;;;9.07;3.47;;;;;;;15.42;52.67;103040.09;5036674;28;20206;-78
2023/05/26 11:18:52;;;;;;;8.53;3.40;;;;;;;15.55;51.60;103069.06;5037188;28;20256;-78
2023/05/26 11:21:25;;;;;;;8.17;3.77;;;;;;;15.78;50.63;103104.28;5036873;28;20234;-79